Hauptseite
METAR-TAF:

METAR-TAF

Flughäfen :

Reykjavík, Island

Flughafen Reykjavík

Breite: 64-08N, Länge: 021-54W, Höhe: 54 m

Beobachtung

Neuester Wetterbericht von vor 23 Minuten, um 18:00 UTC
Wind 12 kt aus Nord
Temperatur 9°C
Luftfeuchtigkeit 57%
Luftdruck 1001 hPa
Sichtweite 10 km oder mehr
Leicht bewölkt in der Höhe von 2700 ft

METAR: BIRK 221800Z 36012KT 9999 FEW027 09/01 Q1001

Zeit: 18:23 (18:23 UTC)

Prognose

Neuester Wetterbericht von vor 4 Stunden und 56 Minuten, um 13:27 UTC
Gültige Prognose vom 22 um 15 UTC bis 23 um 15 UTC
Wind 5 kt aus Ost
Sichtweite 10 km oder mehr
Leicht bewölkt in der Höhe von 2000 ft
Wahrscheinlichkeit 40% :
Zeitweise
vom 22 um 15 UTC bis 22 um 22 UTC
Wind 12 kt aus Nord/Nordost

TAF: BIRK 221327Z 2215/2315 09005KT 9999 FEW020 TX11/2315Z TN02/2306Z PROB40 TEMPO 2215/2222 02012KT

Wetterbeobachtungen und Prognosen von mehr als 4000 Flughäfen (METAR und TAF Bericht).

Die verfügbaren Stationen werden durch gelbe und rote Markierungen auf der Karte dargestellt.

Führen Sie die Maus auf sie, um den Namen der Station zu sehen.

Darauf klicken, um die Beobachtung von Wetterbeobachtungen und Prognosen zu sehen.

Um die Karte zu ändern : klicken Sie auf den grünen Tasten mit einem schwarzen Kreuz Zum Vergrößern, auf den grünen Button mit einem Gedankenstrich zu verkleinern, oder auf die grünen Pfeile für benachbarte Karten.


METAR-TAF: